• Join FlightAware (Why Join?)
  • Login
  • US Flag 
12:41AM EDT


 

Airport Tracker/Info


-or-


 

Live Flight TrackerFlight Track Log ✈ N830QS ✈ 20-Jun-2013 ✈ KDWH - KSAT

Flight Track Log - Related Links

Times and Time Zones

All times are in EDT time to prevent confusion due to time zone crossing. See the N830QS flight status page for this flight to view local times or setup timezone preferences in your user account.

Time Position Orientation Groundspeed Altitude Reporting Facility
EDT Latitude Longitude Course Direction KTS MPH feet Rate Location/Type
03:56PM 30.0331 -95.5739 224° Southwest 193 222 2,000  Level Houston Center
03:57PM 29.9983 -95.6311 235° Southwest 208 239 2,000  Level Houston Center
03:58PM 29.9464 -95.6611 207° Southwest 199 229 2,000  Level Houston Center
03:59PM 29.8986 -95.6908 208° Southwest 198 228 2,000 540 Level Houston Center
04:00PM 29.8869 -95.7500 257° West 234 269 3,200 2,100 Climbing Houston Center
04:01PM 29.8822 -95.8375 266° West 284 327 6,400 3,600 Climbing Houston Center
04:02PM 29.8289 -95.9014 226° Southwest 267 307 10,600 3,600 Climbing Houston Center
04:03PM 29.7883 -95.9897 242° Southwest 287 330 14,500 2,400 Climbing Houston Center
04:04PM 29.7833 -96.0881 267° West 304 350 16,000 720 Climbing Houston Center
04:05PM 29.7786 -96.1983 267° West 337 388 16,000  Level Houston Center
04:06PM 29.7875 -96.3128 275° West 357 411 16,000  Level Houston Center
04:07PM 29.7981 -96.4472 275° West 354 407 16,000  Level Houston Center
04:08PM 29.8072 -96.5653 275° West 365 420 16,000  Level Houston Center
04:09PM 29.8158 -96.6853 275° West 375 432 16,000  Level Houston Center
04:10PM 29.8250 -96.8050 275° West 376 433 16,000  Level Houston Center
04:11PM 29.8333 -96.9247 275° West 376 433 16,000  Level Houston Center
04:12PM 29.8439 -97.0667 275° West 378 435 16,000  Level Houston Center
04:13PM 29.8522 -97.1881 275° West 378 435 16,000  Level Houston Center
04:14PM 29.8597 -97.3092 274° West 377 434 16,000  Level Houston Center
04:15PM 29.8686 -97.4308 275° West 377 434 16,000  Level Houston Center
04:16PM 29.8772 -97.5658 274° West 374 430 16,000 -240 Level Houston Center
04:17PM 29.8836 -97.6417 276° West 377 434 15,600 -1,260 Descending Houston Center
04:18PM 29.8953 -97.8153 274° West 374 430 13,400 -1,200 Descending Houston Center
04:20PM 29.8728 -97.9189 256° West 343 395 12,800 -840 Descending Houston Center
04:21PM 29.8319 -98.0194 245° Southwest 349 402 11,700 -1,020 Descending Houston Center
04:22PM 29.7864 -98.1256 244° Southwest 341 392 10,700 -1,020 Descending Houston Center
04:22PM 29.7564 -98.1997 245° Southwest 296 341 9,800 -1,020 Descending Houston Center
04:23PM 29.7197 -98.2789 242° Southwest 274 315 8,800 -1,020 Descending Houston Center
04:25PM 29.6781 -98.3800 245° Southwest 284 327 7,500 -1,980 Descending Houston Center
04:26PM 29.6522 -98.4633 250° West 291 335 4,400 -2,760 Descending Houston Center
04:27PM 29.6378 -98.5269 255° West 256 295 2,300 -1,440 Descending Houston Center
04:28PM 29.5789 -98.5269 180° South 177 204 1,800 -600 Descending Houston Center
04:29PM 29.5508 -98.4967 137° Southeast 123 142 1,100 -720 Descending Houston Center
04:31PM 29.5340 -98.4691 168° South  Level Estimated